City Ranch, California
Current Conditions -  °F | °C
As of 6:53 PM on Thursday 27 Nov 2014 (Local Time) from KPMD Reporting Station
Clear Clear  
Wind Chill: 52°   Ceiling: Unl
Heat Index: 52°   Visibility: 10mi
Dew Point: 18°   Wind: 8mph
Humidity: 26%   Direction: 210°SSW
Pressure: 30.15"   Gusts: NA
Location:  34.5959°N, 118.235°W
Report Text: KPMD 280253Z AUTO 21007KT 10SM CLR 11/M08 A3015 RMK AO2 SLP212 T01111078 56001
Loading
Personal Weather Stations






























Interactive Weather Map New forecast layout! Learn more

10-Day Weather Forecast

Advertisements
Track Severe Weather on mobile